createdAt,value
2017-12-27T00:02:49.582Z,88.00
2017-12-27T00:08:27.238Z,88.20
2017-12-27T00:11:00.813Z,88.70
2017-12-27T00:13:34.386Z,88.40
2017-12-27T00:16:08.099Z,88.30
2017-12-27T00:18:41.679Z,88.50
2017-12-27T00:21:15.274Z,88.50
2017-12-27T00:23:48.854Z,88.40
2017-12-27T00:26:22.483Z,88.50
2017-12-27T00:28:56.486Z,88.20
2017-12-27T00:31:35.337Z,89.00
2017-12-27T00:34:03.400Z,89.10
2017-12-27T00:36:31.454Z,89.30
2017-12-27T00:38:59.515Z,89.50
2017-12-27T00:41:28.333Z,89.70
2017-12-27T00:43:56.399Z,89.80
2017-12-27T00:46:24.530Z,89.70
2017-12-27T00:48:53.355Z,89.70
2017-12-27T00:51:21.457Z,89.70
2017-12-27T00:53:49.554Z,89.50
2017-12-27T00:56:17.698Z,89.70
2017-12-27T00:58:45.758Z,89.40
2017-12-27T01:01:13.810Z,89.30
2017-12-27T01:03:41.917Z,89.40
2017-12-27T01:06:09.973Z,89.70
2017-12-27T01:08:38.033Z,89.50
2017-12-27T01:11:06.099Z,89.60
2017-12-27T01:13:34.198Z,89.30
2017-12-27T01:16:02.262Z,89.20
2017-12-27T01:18:30.324Z,89.10
2017-12-27T01:20:58.383Z,89.70
2017-12-27T01:23:26.442Z,89.50
2017-12-27T01:25:54.502Z,90.00
2017-12-27T01:28:22.560Z,90.10
2017-12-27T01:30:51.392Z,89.90
2017-12-27T01:33:19.452Z,89.90
2017-12-27T01:35:47.511Z,90.10
2017-12-27T01:38:15.568Z,90.20
2017-12-27T01:40:43.626Z,90.10
2017-12-27T01:43:12.453Z,90.30
2017-12-27T01:45:40.574Z,90.30
2017-12-27T01:48:08.717Z,90.10
2017-12-27T01:50:36.783Z,90.20
2017-12-27T01:53:04.833Z,90.20
2017-12-27T01:55:32.890Z,90.20
2017-12-27T01:58:01.003Z,90.10
2017-12-27T02:00:29.071Z,90.10
2017-12-27T02:02:57.121Z,90.20
2017-12-27T02:05:25.214Z,90.40
2017-12-27T02:07:53.273Z,90.40
2017-12-27T02:10:22.227Z,90.40
2017-12-27T02:12:50.286Z,90.30
2017-12-27T02:15:19.113Z,90.40
2017-12-27T02:17:47.593Z,90.30
2017-12-27T02:20:15.647Z,90.40
2017-12-27T02:22:43.748Z,90.10
2017-12-27T02:25:11.806Z,90.30
2017-12-27T02:27:39.857Z,90.30
2017-12-27T02:30:07.911Z,90.40
2017-12-27T02:32:35.981Z,90.50
2017-12-27T02:35:04.802Z,90.60
2017-12-27T02:37:32.861Z,90.60
2017-12-27T02:43:03.746Z,90.70
2017-12-27T02:45:31.827Z,90.70
2017-12-27T02:47:59.879Z,90.70
2017-12-27T02:50:27.941Z,90.50
2017-12-27T02:52:56.002Z,90.30
2017-12-27T02:55:24.056Z,90.30
2017-12-27T02:57:52.125Z,90.40
2017-12-27T03:00:20.179Z,90.40
2017-12-27T03:02:49.007Z,90.70
2017-12-27T03:05:17.082Z,90.60
2017-12-27T03:07:45.150Z,90.50
2017-12-27T03:10:13.203Z,90.50
2017-12-27T03:12:41.262Z,90.40
2017-12-27T03:15:09.317Z,90.30
2017-12-27T03:17:38.138Z,90.40
2017-12-27T03:20:06.223Z,90.40
2017-12-27T03:22:34.250Z,90.60
2017-12-27T03:25:03.082Z,90.70
2017-12-27T03:27:31.141Z,90.70
2017-12-27T03:29:59.258Z,90.70
2017-12-27T03:32:27.313Z,90.60
2017-12-27T03:34:55.393Z,91.10
2017-12-27T03:37:23.438Z,90.60
2017-12-27T03:39:51.522Z,90.70
2017-12-27T03:42:19.574Z,90.60
2017-12-27T03:44:47.626Z,90.70
2017-12-27T03:47:15.686Z,90.70
2017-12-27T03:49:43.741Z,90.50
2017-12-27T03:52:12.577Z,90.50
2017-12-27T03:54:40.627Z,90.50
2017-12-27T03:57:08.681Z,90.50
2017-12-27T03:59:36.764Z,90.70
2017-12-27T04:02:04.813Z,90.70
2017-12-27T04:04:33.629Z,90.60
2017-12-27T04:07:01.686Z,90.70
2017-12-27T04:09:29.853Z,90.60
2017-12-27T04:11:57.903Z,91.00
2017-12-27T04:14:26.735Z,90.70
2017-12-27T04:16:54.785Z,90.70
2017-12-27T04:19:23.146Z,90.70
2017-12-27T04:21:51.982Z,91.00
2017-12-27T04:24:20.039Z,91.00
2017-12-27T04:26:48.588Z,90.80
2017-12-27T04:29:16.709Z,90.80
2017-12-27T04:31:44.765Z,90.60
2017-12-27T04:34:12.863Z,90.80
2017-12-27T04:36:41.289Z,90.80
2017-12-27T04:39:09.417Z,90.60
2017-12-27T04:41:37.458Z,90.70
2017-12-27T04:44:05.514Z,90.60
2017-12-27T04:46:33.578Z,90.60
2017-12-27T04:49:01.637Z,90.60
2017-12-27T04:51:30.453Z,90.80
2017-12-27T04:53:58.516Z,90.80
2017-12-27T04:56:26.575Z,90.90
2017-12-27T04:58:54.643Z,90.80
2017-12-27T05:01:23.487Z,90.60
2017-12-27T05:03:51.542Z,90.70
2017-12-27T05:06:19.600Z,90.60
2017-12-27T05:08:47.695Z,90.30
2017-12-27T05:11:15.747Z,90.20
2017-12-27T05:13:43.797Z,90.40
2017-12-27T05:16:11.871Z,90.30
2017-12-27T05:18:39.913Z,90.20
2017-12-27T05:21:08.743Z,90.20
2017-12-27T05:23:36.801Z,90.20
2017-12-27T05:26:04.861Z,90.00
2017-12-27T05:28:32.914Z,90.00
2017-12-27T05:31:01.670Z,90.00
2017-12-27T05:33:29.714Z,89.50
2017-12-27T05:35:57.801Z,89.40
2017-12-27T05:38:25.860Z,90.00
2017-12-27T05:40:53.913Z,90.00
2017-12-27T05:43:22.045Z,90.10
2017-12-27T05:45:50.353Z,90.30
2017-12-27T05:48:18.410Z,90.30
2017-12-27T05:50:46.502Z,90.20
2017-12-27T05:53:14.545Z,90.30
2017-12-27T05:55:42.613Z,90.10
2017-12-27T05:58:11.484Z,89.80
2017-12-27T06:00:39.511Z,89.80
2017-12-27T06:03:07.563Z,89.10
2017-12-27T06:05:35.679Z,89.30
2017-12-27T06:08:03.742Z,89.40
2017-12-27T06:10:31.789Z,89.40
2017-12-27T06:12:59.866Z,89.80
2017-12-27T06:15:27.917Z,90.00
2017-12-27T06:17:55.984Z,90.00
2017-12-27T06:20:24.034Z,90.20
2017-12-27T06:22:52.862Z,90.00
2017-12-27T06:25:20.917Z,90.10
2017-12-27T06:27:49.009Z,89.40
2017-12-27T06:30:17.058Z,89.20
2017-12-27T06:32:45.121Z,88.60
2017-12-27T06:35:13.226Z,89.00
2017-12-27T06:37:41.286Z,88.70
2017-12-27T06:40:09.351Z,88.10
2017-12-27T06:42:37.403Z,87.40
2017-12-27T06:45:05.505Z,87.00
2017-12-27T06:47:33.587Z,87.70
2017-12-27T06:50:01.657Z,88.00
2017-12-27T06:52:29.709Z,87.40
2017-12-27T06:54:57.778Z,87.80
2017-12-27T06:57:25.825Z,87.90
2017-12-27T06:59:53.948Z,87.70
2017-12-27T07:02:21.960Z,87.40
2017-12-27T07:04:50.040Z,87.10
2017-12-27T07:07:18.089Z,87.80
2017-12-27T07:09:46.178Z,88.10
2017-12-27T07:12:14.297Z,88.20
2017-12-27T07:14:42.350Z,88.60
2017-12-27T07:17:10.424Z,89.70
2017-12-27T07:19:38.489Z,89.60
2017-12-27T07:22:06.546Z,90.00
2017-12-27T07:24:34.602Z,90.00
2017-12-27T07:27:02.671Z,90.00
2017-12-27T07:29:30.718Z,89.70
2017-12-27T07:31:59.554Z,89.70
2017-12-27T07:34:27.601Z,89.80
2017-12-27T07:36:55.670Z,89.60
2017-12-27T07:39:23.738Z,88.40
2017-12-27T07:41:51.806Z,88.40
2017-12-27T07:44:19.869Z,88.50
2017-12-27T07:46:47.926Z,88.00
2017-12-27T07:49:16.770Z,87.60
2017-12-27T07:51:44.850Z,87.70
2017-12-27T07:54:12.894Z,87.60
2017-12-27T07:56:40.950Z,87.00
2017-12-27T07:59:09.022Z,86.30
2017-12-27T08:01:37.074Z,86.00
2017-12-27T08:04:05.139Z,85.80
2017-12-27T08:06:33.970Z,85.40
2017-12-27T08:09:02.036Z,85.30
2017-12-27T08:11:30.089Z,85.00
2017-12-27T08:13:58.193Z,85.50
2017-12-27T08:16:26.645Z,83.40
2017-12-27T08:18:54.713Z,81.80
2017-12-27T08:21:22.766Z,82.10
2017-12-27T08:23:50.862Z,83.40
2017-12-27T08:26:18.933Z,83.40
2017-12-27T08:28:47.035Z,82.20
2017-12-27T08:31:15.098Z,82.20
2017-12-27T08:33:43.166Z,80.90
2017-12-27T08:36:11.226Z,81.00
2017-12-27T08:38:39.279Z,80.40
2017-12-27T08:41:07.348Z,80.40
2017-12-27T08:43:35.408Z,80.50
2017-12-27T08:46:03.471Z,79.70
2017-12-27T08:48:31.565Z,79.40
2017-12-27T08:51:00.127Z,79.50
2017-12-27T08:53:28.182Z,78.20
2017-12-27T08:55:57.017Z,78.70
2017-12-27T08:58:25.090Z,78.60
2017-12-27T09:00:53.209Z,78.00
2017-12-27T09:03:21.238Z,77.50
2017-12-27T09:05:49.311Z,77.50
2017-12-27T09:08:17.368Z,76.70
2017-12-27T09:10:45.449Z,76.80
2017-12-27T09:13:13.519Z,74.80
2017-12-27T09:15:41.577Z,74.90
2017-12-27T09:18:09.657Z,73.80
2017-12-27T09:20:37.726Z,73.40
2017-12-27T09:23:05.794Z,72.60
2017-12-27T09:25:33.908Z,71.90
2017-12-27T09:28:02.748Z,69.30
2017-12-27T09:30:30.818Z,69.30
2017-12-27T09:32:58.893Z,68.20
2017-12-27T09:35:26.959Z,67.60
2017-12-27T09:37:55.022Z,68.30
2017-12-27T09:40:23.086Z,67.00
2017-12-27T09:42:51.162Z,67.60
2017-12-27T09:45:19.262Z,67.70
2017-12-27T09:47:47.332Z,66.40
2017-12-27T09:50:15.406Z,66.70
2017-12-27T09:52:43.469Z,64.00
2017-12-27T09:55:11.545Z,64.10
2017-12-27T09:57:40.258Z,64.20
2017-12-27T10:00:09.121Z,62.00
2017-12-27T10:02:37.153Z,62.00
2017-12-27T10:05:05.234Z,61.70
2017-12-27T10:07:33.281Z,61.00
2017-12-27T10:10:01.367Z,60.80
2017-12-27T10:12:29.430Z,58.30
2017-12-27T10:14:57.506Z,59.30
2017-12-27T10:17:25.570Z,58.40
2017-12-27T10:19:53.645Z,56.50
2017-12-27T10:22:21.702Z,55.70
2017-12-27T10:24:49.783Z,54.50
2017-12-27T10:27:17.854Z,52.90
2017-12-27T10:29:45.902Z,52.90
2017-12-27T10:32:14.754Z,53.00
2017-12-27T10:34:42.805Z,53.00
2017-12-27T10:37:10.866Z,51.20
2017-12-27T10:39:38.954Z,51.20
2017-12-27T10:42:07.028Z,50.40
2017-12-27T10:44:35.168Z,51.30
2017-12-27T10:47:03.673Z,50.10
2017-12-27T10:49:31.738Z,50.90
2017-12-27T10:51:59.840Z,50.40
2017-12-27T10:54:27.889Z,50.40
2017-12-27T10:56:55.969Z,49.50
2017-12-27T10:59:24.021Z,50.30
2017-12-27T11:01:52.070Z,49.20
2017-12-27T11:04:20.177Z,50.70
2017-12-27T11:06:48.252Z,50.20
2017-12-27T11:09:16.697Z,50.90
2017-12-27T11:11:45.390Z,49.80
2017-12-27T11:14:13.483Z,50.60
2017-12-27T11:16:41.750Z,51.20
2017-12-27T11:19:09.817Z,48.40
2017-12-27T11:21:37.902Z,46.60
2017-12-27T11:24:06.308Z,46.30
2017-12-27T11:26:34.459Z,45.80
2017-12-27T11:29:02.533Z,42.80
2017-12-27T11:31:30.602Z,44.30
2017-12-27T11:33:58.682Z,42.30
2017-12-27T11:36:26.746Z,43.20
2017-12-27T11:38:55.149Z,42.40
2017-12-27T11:41:23.232Z,43.60
2017-12-27T11:43:52.074Z,41.40
2017-12-27T11:46:20.157Z,41.50
2017-12-27T11:48:49.017Z,42.20
2017-12-27T11:51:17.098Z,42.20
2017-12-27T11:53:45.216Z,42.60
2017-12-27T11:56:13.350Z,41.80
2017-12-27T11:58:41.413Z,40.90
2017-12-27T12:01:09.600Z,41.90
2017-12-27T12:03:37.662Z,40.90
2017-12-27T12:06:05.758Z,42.00
2017-12-27T12:08:34.583Z,45.30
2017-12-27T12:11:02.687Z,45.20
2017-12-27T12:13:30.786Z,45.60
2017-12-27T12:15:59.613Z,47.60
2017-12-27T12:18:27.684Z,47.60
2017-12-27T12:20:55.882Z,46.20
2017-12-27T12:23:24.090Z,46.60
2017-12-27T12:25:52.150Z,43.40
2017-12-27T12:28:20.359Z,42.90
2017-12-27T12:30:48.442Z,43.00
2017-12-27T12:33:16.533Z,42.40
2017-12-27T12:35:55.877Z,42.70
2017-12-27T12:38:23.974Z,41.90
2017-12-27T12:40:52.038Z,41.80
2017-12-27T12:43:20.106Z,42.00
2017-12-27T12:45:48.183Z,43.60
2017-12-27T12:48:16.242Z,45.20
2017-12-27T12:50:44.786Z,45.00
2017-12-27T12:53:13.047Z,44.80
2017-12-27T12:55:41.098Z,45.40
2017-12-27T12:58:09.941Z,47.20
2017-12-27T13:00:38.610Z,47.10
2017-12-27T13:03:06.673Z,48.00
2017-12-27T13:05:34.731Z,47.70
2017-12-27T13:08:02.793Z,48.30
2017-12-27T13:10:31.629Z,48.10
2017-12-27T13:12:59.925Z,48.10
2017-12-27T13:15:28.169Z,49.50
2017-12-27T13:17:56.217Z,50.50
2017-12-27T13:20:24.281Z,51.90
2017-12-27T13:22:52.341Z,52.50
2017-12-27T13:25:21.173Z,52.00
2017-12-27T13:27:49.230Z,52.00
2017-12-27T13:30:17.301Z,52.00
2017-12-27T13:32:45.364Z,52.00
2017-12-27T13:35:13.441Z,52.00
2017-12-27T13:37:41.490Z,51.40
2017-12-27T13:40:09.553Z,52.00
2017-12-27T13:42:38.418Z,52.10
2017-12-27T13:45:06.482Z,51.90
2017-12-27T13:47:34.551Z,53.20
2017-12-27T13:50:02.598Z,52.20
2017-12-27T13:52:30.662Z,51.80
2017-12-27T13:54:58.718Z,51.90
2017-12-27T13:57:26.772Z,52.00
2017-12-27T13:59:54.828Z,52.00
2017-12-27T14:02:25.718Z,53.70
2017-12-27T14:04:53.969Z,53.60
2017-12-27T14:07:22.159Z,53.60
2017-12-27T14:09:50.214Z,53.30
2017-12-27T14:12:18.283Z,53.60
2017-12-27T14:14:46.341Z,54.00
2017-12-27T14:17:14.434Z,54.60
2017-12-27T14:19:43.138Z,55.00
2017-12-27T14:22:11.207Z,56.10
2017-12-27T14:24:39.280Z,57.40
2017-12-27T14:27:07.346Z,57.30
2017-12-27T14:29:35.431Z,57.20
2017-12-27T14:32:03.970Z,58.70
2017-12-27T14:34:32.059Z,58.60
2017-12-27T14:37:00.146Z,58.70
2017-12-27T14:39:28.230Z,59.70
2017-12-27T14:41:56.285Z,58.30
2017-12-27T14:44:24.350Z,58.50
2017-12-27T14:46:52.436Z,58.40
2017-12-27T14:49:20.513Z,58.70
2017-12-27T14:51:48.582Z,59.10
2017-12-27T14:54:16.750Z,59.60
2017-12-27T14:56:44.824Z,59.60
2017-12-27T14:59:12.955Z,59.20
2017-12-27T15:01:41.049Z,59.20
2017-12-27T15:04:09.139Z,59.90
2017-12-27T15:06:37.197Z,59.50
2017-12-27T15:09:05.266Z,60.00
2017-12-27T15:11:33.381Z,60.30
2017-12-27T15:14:02.194Z,60.80
2017-12-27T15:16:30.262Z,60.70
2017-12-27T15:18:58.325Z,60.30
2017-12-27T15:21:26.387Z,60.90
2017-12-27T15:23:54.509Z,61.80
2017-12-27T15:26:22.586Z,61.50
2017-12-27T15:28:50.646Z,61.10
2017-12-27T15:31:18.728Z,61.20
2017-12-27T15:33:46.786Z,61.50
2017-12-27T15:36:14.934Z,61.70
2017-12-27T15:38:42.999Z,62.10
2017-12-27T15:41:11.078Z,62.20
2017-12-27T15:43:39.146Z,62.50
2017-12-27T15:46:07.230Z,62.50
2017-12-27T15:48:35.294Z,63.10
2017-12-27T15:51:03.707Z,63.60
2017-12-27T15:53:31.778Z,63.60
2017-12-27T15:55:59.852Z,65.40
2017-12-27T15:58:28.012Z,66.80
2017-12-27T16:00:56.070Z,65.80
2017-12-27T16:03:24.144Z,66.30
2017-12-27T16:05:52.205Z,66.70
2017-12-27T16:08:20.305Z,67.10
2017-12-27T16:10:48.371Z,67.50
2017-12-27T16:13:16.443Z,68.30
2017-12-27T16:15:44.503Z,68.40
2017-12-27T16:18:12.574Z,69.00
2017-12-27T16:20:41.249Z,68.90
2017-12-27T16:23:10.010Z,68.70
2017-12-27T16:25:38.076Z,69.80
2017-12-27T16:28:06.154Z,69.70
2017-12-27T16:30:34.222Z,70.10
2017-12-27T16:33:02.298Z,70.10
2017-12-27T16:35:30.363Z,70.40
2017-12-27T16:37:58.438Z,71.00
2017-12-27T16:40:26.510Z,70.00
2017-12-27T16:42:54.578Z,70.00
2017-12-27T16:45:23.039Z,69.70
2017-12-27T16:47:51.158Z,70.60
2017-12-27T16:50:19.238Z,70.80
2017-12-27T16:52:47.402Z,70.30
2017-12-27T16:55:15.465Z,70.30
2017-12-27T16:57:43.552Z,69.90
2017-12-27T17:00:11.622Z,70.10
2017-12-27T17:02:39.791Z,71.90
2017-12-27T17:05:07.871Z,72.70
2017-12-27T17:07:35.925Z,75.00
2017-12-27T17:10:04.009Z,74.90
2017-12-27T17:12:32.761Z,74.90
2017-12-27T17:15:00.856Z,74.90
2017-12-27T17:17:28.923Z,75.00
2017-12-27T17:19:56.996Z,74.90
2017-12-27T17:22:25.077Z,75.20
2017-12-27T17:24:53.138Z,75.00
2017-12-27T17:27:21.215Z,75.50
2017-12-27T17:29:50.634Z,75.80
2017-12-27T17:32:19.473Z,76.50
2017-12-27T17:34:47.538Z,76.50
2017-12-27T17:37:16.539Z,76.90
2017-12-27T17:39:44.606Z,77.40
2017-12-27T17:42:12.679Z,77.30
2017-12-27T17:44:40.831Z,77.10
2017-12-27T17:47:08.895Z,77.90
2017-12-27T17:49:36.988Z,77.30
2017-12-27T17:52:05.078Z,77.50
2017-12-27T17:54:33.146Z,77.00
2017-12-27T17:57:01.254Z,76.80
2017-12-27T17:59:29.328Z,76.60
2017-12-27T18:01:58.193Z,77.70
2017-12-27T18:04:26.362Z,77.70
2017-12-27T18:06:54.437Z,77.70
2017-12-27T18:09:22.513Z,77.50
2017-12-27T18:11:50.667Z,78.00
2017-12-27T18:14:18.743Z,77.50
2017-12-27T18:16:46.818Z,77.70
2017-12-27T18:19:14.952Z,78.10
2017-12-27T18:21:43.019Z,78.40
2017-12-27T18:24:11.089Z,78.20
2017-12-27T18:26:39.162Z,77.80
2017-12-27T18:29:07.230Z,78.30
2017-12-27T18:31:35.297Z,78.40
2017-12-27T18:34:03.422Z,78.50
2017-12-27T18:36:31.797Z,77.90
2017-12-27T18:38:59.876Z,77.70
2017-12-27T18:41:27.948Z,77.30
2017-12-27T18:43:56.023Z,76.70
2017-12-27T18:46:24.182Z,77.50
2017-12-27T18:48:52.253Z,77.80
2017-12-27T18:51:20.319Z,77.70
2017-12-27T18:53:48.380Z,77.80
2017-12-27T18:56:16.454Z,77.60
2017-12-27T18:58:44.525Z,78.00
2017-12-27T19:01:12.637Z,79.00
2017-12-27T19:03:41.475Z,79.40
2017-12-27T19:09:07.442Z,79.20
2017-12-27T19:11:35.590Z,79.00
2017-12-27T19:14:03.680Z,78.90
2017-12-27T19:16:31.744Z,78.70
2017-12-27T19:18:59.807Z,79.30
2017-12-27T19:21:27.869Z,79.90
2017-12-27T19:23:55.993Z,80.60
2017-12-27T19:26:24.104Z,80.80
2017-12-27T19:28:52.159Z,81.00
2017-12-27T19:31:20.230Z,80.80
2017-12-27T19:33:48.296Z,81.30
2017-12-27T19:36:16.374Z,81.60
2017-12-27T19:38:44.727Z,81.90
2017-12-27T19:41:12.808Z,82.10
2017-12-27T19:43:40.893Z,82.30
2017-12-27T19:46:08.959Z,83.60
2017-12-27T19:48:37.043Z,82.80
2017-12-27T19:51:05.094Z,83.70
2017-12-27T19:53:33.345Z,83.60
2017-12-27T19:56:02.173Z,83.70
2017-12-27T19:58:30.244Z,83.70
2017-12-27T20:00:59.050Z,83.60
2017-12-27T20:03:27.134Z,83.70
2017-12-27T20:05:55.245Z,83.60
2017-12-27T20:08:23.378Z,83.70
2017-12-27T20:10:51.651Z,83.60
2017-12-27T20:13:19.724Z,83.60
2017-12-27T20:15:47.807Z,83.60
2017-12-27T20:18:15.869Z,83.50
2017-12-27T20:20:43.941Z,83.60
2017-12-27T20:23:12.008Z,83.60
2017-12-27T20:25:40.135Z,83.60
2017-12-27T20:28:08.206Z,83.60
2017-12-27T20:30:36.282Z,83.40
2017-12-27T20:33:04.337Z,83.60
2017-12-27T20:35:32.407Z,83.50
2017-12-27T20:38:00.474Z,83.50
2017-12-27T20:40:28.603Z,83.40
2017-12-27T20:42:56.791Z,83.50
2017-12-27T20:45:24.861Z,83.40
2017-12-27T20:47:53.698Z,84.60
2017-12-27T20:50:21.836Z,84.10
2017-12-27T20:52:50.654Z,85.10
2017-12-27T20:55:19.109Z,85.10
2017-12-27T20:57:47.170Z,85.10
2017-12-27T21:00:16.018Z,85.30
2017-12-27T21:02:44.133Z,85.30
2017-12-27T21:05:13.096Z,85.30
2017-12-27T21:07:41.161Z,85.20
2017-12-27T21:10:09.235Z,84.80
2017-12-27T21:12:37.302Z,84.30
2017-12-27T21:15:05.362Z,84.60
2017-12-27T21:17:33.452Z,83.90
2017-12-27T21:20:03.079Z,83.40
2017-12-27T21:22:31.920Z,83.30
2017-12-27T21:24:59.978Z,83.30
2017-12-27T21:27:28.081Z,84.40
2017-12-27T21:29:56.952Z,84.60
2017-12-27T21:32:25.131Z,85.00
2017-12-27T21:34:53.661Z,84.80
2017-12-27T21:37:22.485Z,85.30
2017-12-27T21:39:50.550Z,85.30
2017-12-27T21:42:18.626Z,84.70
2017-12-27T21:44:46.686Z,84.00
2017-12-27T21:47:20.457Z,83.40
2017-12-27T21:49:54.911Z,83.30
2017-12-27T21:52:22.980Z,83.30
2017-12-27T21:54:51.037Z,83.30
2017-12-27T21:57:19.694Z,83.40
2017-12-27T21:59:53.374Z,83.20
2017-12-27T22:02:21.444Z,83.40
2017-12-27T22:04:49.507Z,83.30
2017-12-27T22:07:17.560Z,83.20
2017-12-27T22:09:45.666Z,83.30
2017-12-27T22:12:13.732Z,83.40
2017-12-27T22:14:41.795Z,83.00
2017-12-27T22:17:09.855Z,82.90
2017-12-27T22:19:38.034Z,82.70
2017-12-27T22:22:06.380Z,83.30
2017-12-27T22:24:34.455Z,83.20
2017-12-27T22:27:03.299Z,83.20
2017-12-27T22:29:32.832Z,83.20
2017-12-27T22:32:00.940Z,84.80
2017-12-27T22:34:28.997Z,83.60
2017-12-27T22:36:57.062Z,83.20
2017-12-27T22:39:25.133Z,83.30
2017-12-27T22:41:53.199Z,83.20
2017-12-27T22:44:21.257Z,83.00
2017-12-27T22:46:49.332Z,83.00
2017-12-27T22:49:17.445Z,83.20
2017-12-27T22:51:45.510Z,83.20
2017-12-27T22:54:13.577Z,83.20
2017-12-27T22:56:41.646Z,83.20
2017-12-27T22:59:09.713Z,83.80
2017-12-27T23:01:37.774Z,83.20
2017-12-27T23:04:05.861Z,83.10
2017-12-27T23:06:33.948Z,83.30
2017-12-27T23:09:02.010Z,83.90
2017-12-27T23:11:30.079Z,83.80
2017-12-27T23:13:58.363Z,83.90
2017-12-27T23:16:26.436Z,84.20
2017-12-27T23:18:54.494Z,83.20
2017-12-27T23:21:22.562Z,83.20
2017-12-27T23:23:50.637Z,83.20
2017-12-27T23:26:19.106Z,83.20
2017-12-27T23:28:47.165Z,83.30
2017-12-27T23:31:15.235Z,83.20
2017-12-27T23:33:43.315Z,83.20
2017-12-27T23:36:11.409Z,83.20
2017-12-27T23:38:39.580Z,83.20
2017-12-27T23:41:07.626Z,83.30
2017-12-27T23:43:36.619Z,82.40
2017-12-27T23:46:04.681Z,81.90
2017-12-27T23:48:32.738Z,81.30
2017-12-27T23:51:00.809Z,80.30
2017-12-27T23:53:28.928Z,79.70
2017-12-27T23:55:57.089Z,79.70
2017-12-27T23:58:25.153Z,80.00
